Latest Weather Observations for Darwin Airport

IDD60801

Issued at 11:11 pm CST Sunday 17 February 2019 (issued every 10 minutes, with the page automatically refreshed every 10 minutes)

About weather observations | Map of weather stations | Latest weather observations for NT | Other Formats
Station Details ID: 014015 Name: DARWIN AIRPORT Lat: -12.42 Lon: 130.89 Height: 30.4 m
Data from the previous 72 hours. | See also: Recent months at Darwin Airport
Date/Time
CST
Temp
°C
App
Temp
°C
Dew
Point
°C
Rel
Hum
%
Delta-T
°C
Wind Press
QNH
hPa
Press
MSL
hPa
Rain since
9am
mm
Dir  Spd
km/h
Gust
km/h
Spd
kts
Gust
kts
17/11:00pm 27.8 31.4 23.0 75 3.3 SSW 9 13 5 7 1011.4 1011.2 0.0
17/10:30pm 27.4 31.3 23.6 80 2.6 SSW 9 13 5 7 1011.3 1011.1 0.0
17/10:00pm 27.3 31.1 23.4 79 2.7 S 9 11 5 6 1011.2 1011.0 0.0
17/09:30pm 27.3 31.7 23.4 79 2.7 S 6 9 3 5 1010.9 1010.7 0.0
17/09:00pm 26.9 31.0 23.2 80 2.5 SW 7 11 4 6 1010.3 1010.1 0.0
17/08:30pm 26.9 30.6 22.5 77 3.0 SW 7 11 4 6 1010.0 1009.8 0.0
17/08:00pm 26.8 29.7 21.7 73 3.4 S 9 11 5 6 1009.6 1009.4 0.0
17/07:30pm 27.0 29.0 21.6 72 3.6 S 13 19 7 10 1009.6 1009.4 0.0
17/07:00pm 27.8 30.5 22.8 74 3.4 SSW 13 17 7 9 1009.7 1009.5 0.0
17/06:30pm 29.6 30.8 20.6 58 6.0 SSW 15 22 8 12 1009.1 1008.8 0.0
17/06:00pm 29.4 29.5 20.0 57 6.2 S 19 26 10 14 1008.9 1008.6 0.0
17/05:30pm 31.0 32.5 18.9 48 7.9 SSW 9 13 5 7 1008.4 1008.1 0.0
17/05:00pm 28.1 27.3 17.1 51 6.9 SE 17 24 9 13 1008.2 1007.9 0.0
17/04:30pm 28.4 28.2 18.4 54 6.4 WSW 17 35 9 19 1008.4 1008.1 0.0
17/04:12pm 32.5 34.3 24.2 61 5.8 WNW 22 28 12 15 1008.5 1008.2 0.0
17/04:00pm 33.2 34.6 24.2 59 6.3 WNW 24 30 13 16 1008.1 1007.8 0.0
17/03:30pm 32.8 34.1 24.1 60 6.1 WNW 24 30 13 16 1008.1 1007.8 0.0
17/03:00pm 33.1 34.2 23.6 57 6.6 WNW 24 32 13 17 1008.5 1008.2 0.0
17/02:30pm 32.5 33.6 23.6 59 6.2 WNW 24 32 13 17 1009.3 1009.0 0.0
17/02:00pm 32.6 34.1 23.7 59 6.2 WNW 22 28 12 15 1009.5 1009.3 0.0
17/01:30pm 32.5 34.8 24.1 61 5.9 WNW 19 24 10 13 1010.3 1010.1 0.0
17/01:00pm 32.5 34.8 24.1 61 5.9 WNW 19 24 10 13 1010.7 1010.5 0.0
17/12:30pm 32.4 35.5 24.1 61 5.8 NW 15 22 8 12 1011.2 1011.0 0.0
17/12:00pm 32.6 35.9 24.5 62 5.7 NW 15 19 8 10 1011.5 1011.3 0.0
17/11:30am 32.1 36.1 23.8 61 5.8 WNW 9 17 5 9 1011.8 1011.6 0.0
17/11:00am 30.9 34.8 24.3 68 4.6 WSW 11 17 6 9 1011.9 1011.7 0.0
17/10:30am 31.2 35.7 24.0 65 5.0 W 7 11 4 6 1012.0 1011.8 0.0
17/10:00am 30.1 33.9 24.1 70 4.2 W 11 19 6 10 1012.0 1011.8 0.0
17/09:30am 30.4 34.6 24.7 71 4.0 WNW 11 17 6 9 1012.2 1012.0 0.0
17/09:00am 29.6 34.7 25.0 76 3.2 WNW 7 11 4 6 1012.3 1012.1 2.4
17/08:30am 28.2 34.2 24.8 82 2.4 ESE 2 4 1 2 1012.0 1011.8 2.4
17/08:00am 26.2 31.8 24.3 89 1.3 E 2 4 1 2 1011.8 1011.6 2.4
17/07:30am 25.5 30.6 24.0 91 1.0 ESE 4 4 2 2 1011.4 1011.2 2.4
17/07:00am 25.1 30.1 23.8 92 0.9 ESE 4 6 2 3 1011.1 1010.9 2.4
17/06:30am 24.9 30.7 24.0 95 0.6 CALM 0 0 0 0 1010.7 1010.5 2.4
17/06:00am 25.2 31.2 24.3 95 0.6 CALM 0 0 0 0 1010.4 1010.2 2.4
17/05:30am 24.9 30.9 24.2 96 0.5 CALM 0 0 0 0 1010.1 1009.9 2.4
17/05:00am 24.8 30.6 23.9 95 0.6 CALM 0 0 0 0 1009.8 1009.6 2.4
17/04:30am 24.8 29.8 23.9 95 0.6 N 4 6 2 3 1009.4 1009.1 2.4
17/04:00am 24.8 30.5 23.8 94 0.7 CALM 0 0 0 0 1009.1 1008.8 2.4
17/03:30am 25.0 30.7 23.7 92 0.9 CALM 0 0 0 0 1009.4 1009.1 2.4
17/03:00am 25.2 30.1 23.7 91 1.0 NNW 4 6 2 3 1009.4 1009.1 2.4
17/02:30am 25.8 30.5 23.9 89 1.3 NNW 6 6 3 3 1009.6 1009.4 2.4
17/02:00am 25.9 30.8 23.7 88 1.5 S 4 7 2 4 1010.2 1010.0 2.4
17/01:30am 25.5 30.0 23.6 89 1.3 SSE 6 11 3 6 1010.6 1010.4 2.4
17/01:00am 25.8 30.9 23.3 86 1.7 SE 2 4 1 2 1011.0 1010.8 2.4
17/12:30am 26.0 30.8 22.9 83 2.1 WSW 2 6 1 3 1011.6 1011.4 2.4
17/12:00am 25.7 29.6 22.9 84 1.9 SSE 7 9 4 5 1012.0 1011.8 2.4
 
Date/Time
CST
Temp
°C
App
Temp
°C
Dew
Point
°C
Rel
Hum
%
Delta-T
°C
Wind Press
QNH
hPa
Press
MSL
hPa
Rain since
9am
mm
Dir  Spd
km/h
Gust
km/h
Spd
kts
Gust
kts
16/11:30pm 25.6 30.5 23.1 86 1.7 E 2 6 1 3 1012.1 1011.9 2.4
16/11:00pm 25.8 29.2 22.7 83 2.1 E 9 11 5 6 1012.1 1011.9 2.4
16/10:30pm 26.1 29.5 22.7 81 2.3 ESE 9 13 5 7 1012.2 1012.0 2.4
16/10:00pm 26.3 30.0 23.2 83 2.1 SE 9 11 5 6 1011.9 1011.7 2.4
16/09:30pm 26.4 30.1 23.3 83 2.1 SSE 9 15 5 8 1011.6 1011.4 2.4
16/09:00pm 26.3 30.1 23.4 84 2.0 SSE 9 13 5 7 1011.7 1011.5 2.4
16/08:30pm 26.0 29.0 22.6 81 2.3 SSE 11 13 6 7 1011.3 1011.1 2.4
16/08:00pm 25.7 27.6 22.0 80 2.5 SE 15 20 8 11 1011.2 1011.0 2.4
16/07:30pm 26.1 28.2 22.4 80 2.5 S 15 20 8 11 1011.3 1011.1 2.4
16/07:00pm 26.3 27.1 22.4 79 2.6 S 22 28 12 15 1010.5 1010.3 2.4
16/06:30pm 27.6 26.6 21.3 68 4.2 SSW 28 39 15 21 1010.3 1010.1 2.4
16/06:00pm 30.9 32.2 24.0 66 4.8 W 24 30 13 16 1009.2 1008.9 2.4
16/05:30pm 31.2 32.3 23.6 64 5.3 WNW 24 32 13 17 1008.2 1007.9 2.4
16/05:00pm 32.1 33.2 23.6 60 5.9 WNW 24 30 13 16 1008.1 1007.8 2.4
16/04:30pm 32.1 33.5 23.5 60 6.0 WNW 22 30 12 16 1008.1 1007.8 2.2
16/04:00pm 31.5 34.2 25.0 68 4.6 WNW 20 26 11 14 1008.1 1007.8 2.2
16/03:30pm 30.6 33.5 25.4 74 3.7 WNW 20 26 11 14 1008.2 1007.9 2.2
16/03:00pm 30.5 34.0 26.9 81 2.6 WNW 22 30 12 16 1009.2 1008.9 2.2
16/02:30pm 32.8 34.9 24.7 62 5.7 NW 22 28 12 15 1009.8 1009.6 0.0
16/02:17pm 33.0 35.0 24.6 61 5.9 WNW 22 30 12 16 1009.8 1009.6 0.0
16/02:00pm 32.2 35.2 25.3 67 4.9 WNW 19 24 10 13 1010.2 1010.0 0.0
16/01:30pm 32.6 34.8 24.0 60 6.0 WNW 19 24 10 13 1010.6 1010.4 0.0
16/01:00pm 33.7 37.4 24.5 58 6.5 WNW 13 19 7 10 1011.0 1010.8 0.0
16/12:30pm 32.2 36.1 24.8 65 5.2 WNW 13 19 7 10 1011.5 1011.3 0.0
16/12:00pm 31.9 37.3 25.4 68 4.6 WNW 7 15 4 8 1011.9 1011.7 0.0
16/11:30am 32.0 36.6 25.4 68 4.7 NW 11 19 6 10 1012.2 1012.0 0.0
16/11:00am 31.6 37.2 25.4 69 4.4 W 6 9 3 5 1012.6 1012.4 0.0
16/10:30am 31.7 36.2 23.9 63 5.4 W 7 15 4 8 1012.6 1012.4 0.0
16/10:00am 31.3 36.8 24.1 65 5.0 SSE 2 6 1 3 1012.7 1012.5 0.0
16/09:30am 30.9 36.7 24.6 69 4.4 N 2 6 1 3 1012.6 1012.4 0.0
16/09:00am 31.1 37.8 25.9 74 3.7 SSW 2 9 1 5 1012.4 1012.2 0.0
16/08:30am 30.0 37.0 25.8 78 3.0 CALM 0 2 0 1 1012.2 1012.0 0.0
16/08:00am 29.4 35.1 25.6 80 2.7 W 6 7 3 4 1012.1 1011.9 0.0
16/07:30am 27.6 34.4 25.6 89 1.4 CALM 0 0 0 0 1011.8 1011.6 0.0
16/07:00am 26.1 32.6 25.0 94 0.8 CALM 0 0 0 0 1011.8 1011.6 0.0
16/06:30am 25.8 32.1 24.8 94 0.7 CALM 0 2 0 1 1011.4 1011.2 0.0
16/06:00am 26.2 31.5 24.9 92 0.9 W 6 7 3 4 1011.1 1010.9 0.0
16/05:30am 26.1 32.4 24.7 92 1.0 CALM 0 0 0 0 1010.9 1010.7 0.0
16/05:00am 26.1 32.4 24.7 92 1.0 CALM 0 0 0 0 1011.0 1010.8 0.0
16/04:30am 26.2 32.4 24.6 91 1.1 CALM 0 0 0 0 1011.0 1010.8 0.0
16/04:00am 26.4 32.5 24.5 89 1.3 CALM 0 0 0 0 1011.1 1010.9 0.0
16/03:30am 26.7 32.2 24.7 89 1.4 WSW 4 4 2 2 1011.0 1010.8 0.0
16/03:00am 26.7 32.2 24.7 89 1.4 W 4 6 2 3 1011.1 1010.9 0.0
16/02:30am 28.0 33.6 24.9 83 2.2 WSW 4 6 2 3 1011.4 1011.2 0.0
16/02:00am 27.3 32.0 24.0 82 2.3 WNW 6 6 3 3 1011.7 1011.5 0.0
16/01:30am 27.3 32.0 24.0 82 2.3 WNW 6 7 3 4 1012.4 1012.2 0.0
16/01:00am 28.4 33.0 23.1 73 3.6 WSW 4 6 2 3 1012.4 1012.2 0.0
16/12:30am 28.6 32.2 23.0 71 3.8 WNW 9 11 5 6 1012.4 1012.2 0.0
16/12:00am 28.7 32.8 23.9 75 3.3 WNW 9 11 5 6 1012.8 1012.6 0.0
 
Date/Time
CST
Temp
°C
App
Temp
°C
Dew
Point
°C
Rel
Hum
%
Delta-T
°C
Wind Press
QNH
hPa
Press
MSL
hPa
Rain since
9am
mm
Dir  Spd
km/h
Gust
km/h
Spd
kts
Gust
kts
15/11:30pm 28.8 33.5 24.9 79 2.7 NW 9 13 5 7 1012.8 1012.6 0.0
15/11:00pm 28.8 33.9 25.5 82 2.3 WNW 9 13 5 7 1012.7 1012.5 0.0
15/10:30pm 28.7 33.1 25.6 83 2.2 WNW 13 15 7 8 1012.6 1012.4 0.0
15/10:00pm 28.8 33.8 25.4 82 2.4 W 9 13 5 7 1012.2 1012.0 0.0
15/09:30pm 28.9 33.2 25.5 82 2.4 WNW 13 15 7 8 1011.9 1011.7 0.0
15/09:00pm 29.4 34.2 25.7 80 2.6 W 11 17 6 9 1011.5 1011.3 0.0
15/08:30pm 29.6 34.1 25.2 77 3.1 W 11 15 6 8 1011.4 1011.2 0.0
15/08:00pm 29.7 34.0 25.5 78 3.0 W 13 17 7 9 1011.5 1011.3 0.0
15/07:30pm 29.9 34.2 25.5 77 3.1 W 13 17 7 9 1010.9 1010.7 0.0
15/07:00pm 30.3 32.5 25.5 75 3.4 WNW 24 30 13 16 1010.7 1010.5 0.0
15/06:30pm 31.3 33.9 24.9 69 4.5 WNW 20 24 11 13 1009.9 1009.7 0.0
15/06:00pm 31.9 34.6 23.5 61 5.8 WNW 15 17 8 9 1009.7 1009.5 0.0
15/05:30pm 33.2 36.6 23.3 56 6.9 WNW 11 17 6 9 1009.0 1008.7 0.0
15/05:00pm 33.3 36.0 23.4 56 6.9 WNW 15 19 8 10 1008.8 1008.5 0.0
15/04:30pm 33.1 34.7 22.1 52 7.5 WNW 17 20 9 11 1008.9 1008.6 0.0
15/04:00pm 32.9 34.1 23.9 59 6.3 WNW 24 28 13 15 1009.6 1009.4 0.0
15/03:30pm 32.6 33.8 23.9 60 6.1 WNW 24 30 13 16 1009.9 1009.7 0.0
15/03:00pm 33.1 35.3 24.9 62 5.8 WNW 22 32 12 17 1010.2 1010.0 0.0
15/02:30pm 32.5 34.0 24.4 62 5.7 WNW 24 30 13 16 1010.3 1010.1 0.0
15/02:00pm 32.7 34.5 24.3 61 5.9 NW 22 28 12 15 1010.7 1010.5 0.0
15/01:30pm 33.1 36.0 25.4 64 5.5 WNW 20 26 11 14 1011.0 1010.8 0.0
15/01:00pm 32.7 35.6 25.1 64 5.4 NW 19 26 10 14 1011.4 1011.2 0.0
15/12:30pm 32.4 36.1 25.2 66 5.1 WNW 15 20 8 11 1011.9 1011.7 0.0
15/12:00pm 31.6 35.3 24.6 66 4.9 WNW 13 19 7 10 1012.3 1012.1 0.0
15/11:30am 31.3 35.5 24.8 68 4.6 W 11 17 6 9 1012.7 1012.5 0.0
15/11:00am 30.6 34.5 25.4 74 3.7 WNW 15 19 8 10 1012.8 1012.6 0.0
15/10:30am 30.8 35.0 25.3 72 3.9 W 13 19 7 10 1012.7 1012.5 0.0
15/10:00am 29.9 34.0 25.8 78 2.9 W 15 20 8 11 1012.7 1012.5 0.0
15/09:30am 29.6 34.5 25.8 80 2.7 W 11 17 6 9 1012.7 1012.5 0.0
15/09:00am 29.5 34.4 25.8 80 2.6 W 11 17 6 9 1012.4 1012.2 0.2
15/08:30am 29.1 34.0 25.3 80 2.7 WSW 9 15 5 8 1012.2 1012.0 0.2
15/08:00am 28.8 33.7 25.2 81 2.5 WSW 9 13 5 7 1011.8 1011.6 0.0
15/07:30am 27.8 33.2 25.2 86 1.8 NW 6 7 3 4 1011.6 1011.4 0.0
15/07:00am 27.7 33.5 24.5 83 2.2 NW 2 6 1 3 1011.0 1010.8 0.0
15/06:30am 28.3 32.8 24.0 77 3.0 WNW 7 13 4 7 1010.6 1010.4 0.0
15/06:00am 28.1 31.0 24.5 81 2.5 NW 17 22 9 12 1009.4 1009.1 0.0
15/05:30am 27.8 30.7 23.9 79 2.7 NW 15 22 8 12 1009.7 1009.5 0.0
15/05:00am 26.6 29.7 22.9 80 2.5 NNW 11 13 6 7 1009.5 1009.3 0.0
15/04:30am 26.1 29.6 22.2 79 2.6 NW 7 9 4 5 1009.5 1009.3 0.0
15/04:00am 25.2 30.0 22.1 83 2.1 CALM 0 0 0 0 1009.5 1009.3 0.0
15/03:30am 25.1 29.2 22.3 84 1.9 NE 4 9 2 5 1009.6 1009.4 0.0
15/03:00am 25.1 28.4 21.8 82 2.2 NNE 7 11 4 6 1009.7 1009.5 0.0
15/02:30am 25.1 27.9 21.6 81 2.3 E 9 13 5 7 1010.5 1010.3 0.0
15/02:00am 25.6 28.9 21.5 78 2.7 NE 6 11 3 6 1011.0 1010.8 0.0
15/01:30am 25.6 26.7 21.9 80 2.5 E 19 24 10 13 1012.0 1011.8 0.0
15/01:00am 27.5 25.6 21.0 67 4.3 ESE 32 54 17 29 1012.8 1012.6 0.0
15/12:56am 28.0 29.7 22.4 71 3.8 SE 17 54 9 29 1013.0 1012.8 0.0
15/12:45am 28.8 35.6 25.5 82 2.3 CALM 0 2 0 1 1012.2 1012.0 0.0
15/12:30am 29.0 34.6 25.5 81 2.5 WNW 6 7 3 4 1011.7 1011.5 0.0
15/12:00am 28.9 34.3 25.5 82 2.4 W 7 11 4 6 1011.7 1011.5 0.0
 
Date/Time
CST
Temp
°C
App
Temp
°C
Dew
Point
°C
Rel
Hum
%
Delta-T
°C
Wind Press
QNH
hPa
Press
MSL
hPa
Rain since
9am
mm
Dir  Spd
km/h
Gust
km/h
Spd
kts
Gust
kts
14/11:30pm 28.9 33.6 25.5 82 2.4 W 11 15 6 8 1011.6 1011.4 0.0

Other Formats:

Comma delimited format used in spreadsheet applications
http://www.bom.gov.au/fwo/IDD60801/IDD60801.94120.axf

JavaScript Object Notation format (JSON) in row-major order
http://www.bom.gov.au/fwo/IDD60801/IDD60801.94120.json